createdAt,value
2022-07-28T00:03:11.325Z,27.93
2022-07-28T00:08:12.385Z,27.89
2022-07-28T00:13:11.174Z,27.80
2022-07-28T00:18:10.039Z,27.76
2022-07-28T00:23:08.879Z,27.59
2022-07-28T00:28:09.125Z,27.53
2022-07-28T00:33:07.860Z,27.56
2022-07-28T00:38:06.691Z,27.49
2022-07-28T00:43:05.481Z,27.53
2022-07-28T00:48:06.184Z,27.51
2022-07-28T00:53:04.996Z,27.45
2022-07-28T00:58:03.762Z,27.48
2022-07-28T01:03:02.891Z,27.54
2022-07-28T01:08:07.149Z,27.55
2022-07-28T01:13:14.690Z,27.61
2022-07-28T01:18:19.889Z,27.57
2022-07-28T01:23:37.973Z,27.50
2022-07-28T01:28:50.121Z,27.45
2022-07-28T01:33:55.984Z,27.51
2022-07-28T01:38:55.337Z,27.37
2022-07-28T01:43:58.434Z,27.33
2022-07-28T01:49:00.769Z,27.34
2022-07-28T01:54:01.602Z,27.45
2022-07-28T01:59:05.120Z,27.37
2022-07-28T02:04:06.840Z,27.31
2022-07-28T02:09:07.223Z,27.27
2022-07-28T02:14:08.723Z,27.08
2022-07-28T02:19:10.304Z,27.19
2022-07-28T02:24:14.539Z,27.04
2022-07-28T02:29:40.557Z,26.85
2022-07-28T02:34:39.754Z,26.73
2022-07-28T02:39:44.647Z,26.70
2022-07-28T02:45:00.906Z,26.76
2022-07-28T02:50:03.976Z,26.84
2022-07-28T02:55:04.782Z,26.76
2022-07-28T03:00:04.137Z,26.65
2022-07-28T03:05:08.687Z,26.51
2022-07-28T03:10:18.549Z,26.53
2022-07-28T03:15:33.246Z,26.38
2022-07-28T03:20:34.538Z,26.24
2022-07-28T03:25:39.757Z,26.30
2022-07-28T03:30:43.064Z,26.17
2022-07-28T03:35:48.779Z,26.25
2022-07-28T03:40:50.383Z,26.32
2022-07-28T03:45:49.461Z,26.05
2022-07-28T03:50:49.540Z,26.00
2022-07-28T03:55:51.157Z,26.20
2022-07-28T04:00:52.839Z,26.34
2022-07-28T04:05:53.045Z,26.32
2022-07-28T04:10:53.538Z,26.49
2022-07-28T04:15:52.369Z,26.55
2022-07-28T04:20:52.537Z,26.67
2022-07-28T04:25:51.334Z,26.64
2022-07-28T04:30:50.172Z,26.95
2022-07-28T04:35:49.237Z,27.08
2022-07-28T04:40:50.238Z,27.31
2022-07-28T04:45:53.351Z,27.41
2022-07-28T04:50:53.772Z,27.56
2022-07-28T04:55:55.446Z,27.53
2022-07-28T05:00:54.382Z,27.56
2022-07-28T05:05:54.535Z,27.82
2022-07-28T05:10:56.374Z,27.84
2022-07-28T05:15:55.264Z,28.12
2022-07-28T05:20:54.018Z,28.25
2022-07-28T05:25:54.206Z,28.31
2022-07-28T05:30:53.040Z,28.64
2022-07-28T05:35:55.102Z,28.64
2022-07-28T05:40:55.314Z,28.99
2022-07-28T05:45:54.123Z,29.14
2022-07-28T05:50:54.492Z,29.37
2022-07-28T05:56:00.544Z,29.55
2022-07-28T06:01:01.610Z,29.37
2022-07-28T06:06:14.649Z,29.27
2022-07-28T06:11:22.747Z,29.34
2022-07-28T06:16:23.412Z,29.47
2022-07-28T06:21:24.532Z,29.45
2022-07-28T06:26:24.456Z,29.46
2022-07-28T06:31:23.214Z,29.53
2022-07-28T06:36:23.007Z,29.27
2022-07-28T06:41:22.575Z,29.24
2022-07-28T06:46:24.023Z,29.17
2022-07-28T06:51:23.406Z,29.20
2022-07-28T06:56:22.144Z,29.55
2022-07-28T07:01:23.763Z,29.73
2022-07-28T07:06:22.587Z,30.13
2022-07-28T07:11:21.353Z,30.42
2022-07-28T07:16:20.543Z,30.64
2022-07-28T07:21:23.502Z,30.65
2022-07-28T07:26:26.723Z,30.85
2022-07-28T07:31:25.665Z,31.01
2022-07-28T07:36:25.891Z,31.39
2022-07-28T07:41:24.659Z,31.80
2022-07-28T07:46:23.928Z,32.23
2022-07-28T07:51:22.742Z,32.55
2022-07-28T07:56:23.041Z,32.77
2022-07-28T08:01:21.817Z,33.02
2022-07-28T08:06:26.347Z,33.13
2022-07-28T08:11:27.033Z,33.23
2022-07-28T08:16:25.850Z,33.25
2022-07-28T08:21:25.037Z,33.39
2022-07-28T08:26:24.099Z,33.51
2022-07-28T08:31:24.614Z,33.61
2022-07-28T08:36:23.929Z,33.92
2022-07-28T08:41:33.530Z,34.19
2022-07-28T08:46:37.435Z,34.69
2022-07-28T08:51:38.179Z,35.43
2022-07-28T08:56:39.689Z,36.44
2022-07-28T09:01:51.650Z,37.28
2022-07-28T09:06:55.405Z,37.90
2022-07-28T09:11:54.293Z,38.16
2022-07-28T09:16:54.844Z,38.69
2022-07-28T09:21:53.590Z,39.05
2022-07-28T09:27:02.604Z,39.49
2022-07-28T09:32:03.216Z,40.04
2022-07-28T09:37:02.249Z,40.50
2022-07-28T09:42:02.006Z,41.48
2022-07-28T09:47:02.234Z,41.13
2022-07-28T09:52:02.337Z,41.32
2022-07-28T09:57:01.162Z,41.90
2022-07-28T10:02:02.971Z,42.48
2022-07-28T10:07:03.773Z,43.06
2022-07-28T10:12:19.797Z,43.89
2022-07-28T10:17:33.513Z,43.63
2022-07-28T10:22:34.648Z,43.75
2022-07-28T10:27:35.216Z,43.87
2022-07-28T10:32:42.685Z,44.16
2022-07-28T10:37:47.546Z,44.41
2022-07-28T10:42:46.354Z,44.66
2022-07-28T10:47:48.002Z,45.01
2022-07-28T10:52:48.276Z,45.46
2022-07-28T10:58:01.925Z,45.61
2022-07-28T11:03:13.427Z,46.02
2022-07-28T11:08:29.536Z,45.85
2022-07-28T11:13:33.332Z,46.52
2022-07-28T11:19:36.705Z,46.77
2022-07-28T11:24:26.768Z,46.95
2022-07-28T11:29:27.560Z,47.04
2022-07-28T11:34:27.899Z,47.07
2022-07-28T11:39:27.994Z,47.29
2022-07-28T11:44:27.982Z,47.68
2022-07-28T11:49:28.827Z,47.67
2022-07-28T11:54:27.623Z,48.17
2022-07-28T11:59:36.456Z,47.45
2022-07-28T12:04:38.553Z,46.17
2022-07-28T12:09:42.563Z,46.98
2022-07-28T12:14:43.549Z,46.99
2022-07-28T12:19:43.696Z,47.74
2022-07-28T12:24:44.920Z,48.55
2022-07-28T12:29:47.902Z,48.58
2022-07-28T12:34:49.664Z,48.67
2022-07-28T12:39:52.506Z,48.39
2022-07-28T12:44:54.200Z,48.15
2022-07-28T12:50:10.052Z,48.12
2022-07-28T12:55:27.005Z,48.07
2022-07-28T13:00:27.534Z,48.11
2022-07-28T13:05:33.395Z,47.77
2022-07-28T13:10:32.647Z,48.10
2022-07-28T13:15:32.141Z,47.62
2022-07-28T13:20:34.741Z,47.88
2022-07-28T13:25:34.315Z,47.50
2022-07-28T13:30:33.105Z,47.39
2022-07-28T13:35:33.345Z,47.44
2022-07-28T13:40:32.147Z,47.34
2022-07-28T13:45:30.993Z,47.25
2022-07-28T13:50:30.245Z,46.40
2022-07-28T13:55:30.733Z,44.91
2022-07-28T14:00:29.821Z,43.03
2022-07-28T14:05:31.921Z,40.91
2022-07-28T14:10:32.944Z,38.25
2022-07-28T14:15:31.748Z,35.30
2022-07-28T14:20:30.806Z,33.21
2022-07-28T14:25:44.221Z,33.01
2022-07-28T14:30:48.998Z,32.50
2022-07-28T14:35:48.246Z,32.71
2022-07-28T14:40:47.503Z,32.59
2022-07-28T14:46:13.470Z,32.86
2022-07-28T14:51:18.779Z,33.23
2022-07-28T14:56:21.736Z,33.46
2022-07-28T15:01:22.894Z,33.39
2022-07-28T15:06:22.457Z,33.43
2022-07-28T15:11:29.825Z,33.51
2022-07-28T15:16:35.497Z,33.57
2022-07-28T15:21:36.779Z,33.71
2022-07-28T15:26:39.468Z,33.92
2022-07-28T15:31:41.879Z,33.98
2022-07-28T15:36:43.213Z,34.20
2022-07-28T15:41:44.338Z,34.29
2022-07-28T15:46:46.646Z,34.40
2022-07-28T15:51:45.715Z,34.54
2022-07-28T15:56:44.478Z,34.65
2022-07-28T16:01:45.753Z,34.68
2022-07-28T16:07:02.251Z,34.63
2022-07-28T16:12:01.263Z,34.64
2022-07-28T16:17:05.958Z,34.07
2022-07-28T16:22:04.492Z,32.75
2022-07-28T16:27:03.294Z,31.84
2022-07-28T16:32:02.124Z,31.87
2022-07-28T16:37:05.758Z,31.79
2022-07-28T16:42:08.313Z,31.60
2022-07-28T16:47:07.469Z,31.54
2022-07-28T16:52:07.865Z,31.44
2022-07-28T16:57:07.421Z,31.37
2022-07-28T17:02:07.254Z,31.39
2022-07-28T17:07:08.391Z,31.34
2022-07-28T17:12:08.755Z,31.30
2022-07-28T17:17:07.666Z,30.95
2022-07-28T17:22:11.060Z,31.12
2022-07-28T17:32:28.942Z,30.86
2022-07-28T17:37:29.378Z,30.72
2022-07-28T17:42:28.349Z,30.73
2022-07-28T17:47:35.880Z,30.64
2022-07-28T17:52:36.804Z,30.53
2022-07-28T17:57:37.879Z,30.40
2022-07-28T18:02:39.396Z,30.23
2022-07-28T18:07:51.245Z,30.18
2022-07-28T18:12:51.675Z,30.11
2022-07-28T18:17:54.964Z,29.98
2022-07-28T18:22:57.567Z,30.07
2022-07-28T18:27:56.793Z,30.20
2022-07-28T18:32:56.043Z,30.35
2022-07-28T18:37:59.007Z,30.50
2022-07-28T18:42:59.153Z,30.53
2022-07-28T18:47:59.778Z,30.49
2022-07-28T18:53:00.746Z,30.47
2022-07-28T18:57:59.690Z,30.18
2022-07-28T19:02:58.651Z,29.99
2022-07-28T19:07:57.630Z,29.84
2022-07-28T19:12:58.022Z,29.75
2022-07-28T19:18:10.431Z,29.87
2022-07-28T19:23:10.568Z,30.01
2022-07-28T19:28:11.796Z,30.14
2022-07-28T19:33:14.596Z,30.19
2022-07-28T19:38:16.617Z,30.28
2022-07-28T19:43:16.839Z,30.30
2022-07-28T19:48:15.913Z,30.32
2022-07-28T19:53:15.146Z,30.27
2022-07-28T19:58:14.225Z,30.06
2022-07-28T20:04:03.512Z,29.94
2022-07-28T20:08:33.804Z,29.98
2022-07-28T20:13:32.806Z,30.03
2022-07-28T20:18:33.245Z,30.05
2022-07-28T20:23:34.590Z,30.02
2022-07-28T20:28:33.534Z,30.06
2022-07-28T20:33:33.796Z,29.96
2022-07-28T20:38:32.660Z,29.85
2022-07-28T20:43:37.131Z,29.82
2022-07-28T20:48:37.746Z,29.82
2022-07-28T20:53:37.557Z,29.81
2022-07-28T20:58:36.560Z,29.80
2022-07-28T21:03:35.637Z,29.79
2022-07-28T21:08:35.895Z,29.75
2022-07-28T21:13:36.629Z,29.64
2022-07-28T21:18:35.696Z,29.54
2022-07-28T21:23:36.056Z,29.32
2022-07-28T21:28:52.223Z,28.94
2022-07-28T21:33:51.254Z,28.67
2022-07-28T21:38:51.384Z,28.58
2022-07-28T21:43:50.243Z,28.46
2022-07-28T21:48:49.046Z,28.52
2022-07-28T21:53:48.381Z,28.52
2022-07-28T21:58:48.738Z,28.37
2022-07-28T22:03:47.486Z,28.35
2022-07-28T22:08:46.219Z,28.35
2022-07-28T22:13:45.170Z,28.30
2022-07-28T22:18:45.556Z,28.18
2022-07-28T22:23:44.471Z,28.07
2022-07-28T22:28:43.333Z,27.90
2022-07-28T22:33:42.129Z,27.91
2022-07-28T22:38:42.316Z,27.98
2022-07-28T22:43:41.031Z,27.95
2022-07-28T22:48:40.091Z,28.04
2022-07-28T22:53:38.899Z,28.18
2022-07-28T22:58:40.238Z,28.21
2022-07-28T23:03:39.200Z,28.33
2022-07-28T23:08:38.053Z,28.37
2022-07-28T23:13:38.273Z,28.35
2022-07-28T23:18:39.590Z,28.20
2022-07-28T23:23:38.146Z,27.94
2022-07-28T23:28:38.286Z,27.89
2022-07-28T23:33:54.283Z,27.83
2022-07-28T23:38:56.219Z,27.73
2022-07-28T23:43:56.570Z,27.57
2022-07-28T23:48:55.392Z,27.48
2022-07-28T23:53:56.422Z,27.33
2022-07-28T23:58:56.866Z,27.23
